Home   Weather   Sweden   Stockholm   Past weeks
Flag for Sweden

Past Weather in Stockholm, Sweden — Yesterday and Last 2 Weeks

Currently: 63 °F. Clear. (Weather station: Stockholm Bromma Airport, Sweden). See more current weather

Past Weather in Stockholm — Graph

°F

Stockholm Temperature Yesterday

Maximum temperature yesterday: 77 °F (at 1:50 pm)
Minimum temperature yesterday: 55 °F (at 5:20 am)
Average temperature yesterday: 65 °F

High & Low Weather Summary for the Past Weeks

 TemperatureHumidityPressure
High79 °F (May 25, 3:20 pm)100% (May 18, 4:20 am)30.30 "Hg (May 18, 4:20 am)
Low41 °F (May 21, 4:20 am)19% (May 21, 12:20 pm)29.83 "Hg (May 19, 4:50 pm)
Average62 °F57%30.15 "Hg
* Reported May 12 9:20 pm — May 27 9:50 pm, Stockholm. Weather by CustomWeather, © 2024

Note: Actual official high and low records may vary slightly from our data, if they occured in-between our weather recording intervals... More about our weather records

Stockholm Weather History for the Previous 24 Hours

Scroll right to see more
 ConditionsComfort  
Time TempWeatherWind HumidityBarometerVisibility
9:50 pm
Mon, May 27
66 °FPassing clouds.3 mph64%30.07 "HgN/A
9:20 pm68 °FSunny.8 mph60%30.07 "Hg10 mi
8:50 pm70 °FPartly sunny.9 mph57%30.07 "HgN/A
8:20 pm72 °FSunny.8 mph50%30.07 "Hg10 mi
7:50 pm73 °FSunny.8 mph50%30.04 "Hg10 mi
7:20 pm73 °FSunny.10 mph50%30.04 "Hg10 mi
6:20 pm75 °FSunny.13 mph44%30.07 "Hg10 mi
5:50 pm75 °FSunny.13 mph44%30.07 "Hg10 mi
5:20 pm77 °FPassing clouds.12 mph44%30.07 "HgN/A
4:50 pm75 °FSunny.13 mph47%30.07 "Hg10 mi
4:20 pm77 °FSunny.15 mph44%30.07 "Hg10 mi
3:20 pm77 °FPassing clouds.13 mph44%30.07 "HgN/A
2:50 pm79 °FSunny.15 mph39%30.09 "Hg10 mi
2:20 pm79 °FPassing clouds.10 mph42%30.09 "HgN/A
1:50 pm79 °FPassing clouds.9 mph39%30.09 "HgN/A
1:20 pm79 °FPassing clouds.8 mph42%30.09 "HgN/A
12:50 pm77 °FPassing clouds.6 mph44%30.12 "HgN/A
12:20 pm75 °FPassing clouds.7 mph41%30.12 "HgN/A
11:50 am75 °FPassing clouds.8 mph47%30.12 "HgN/A
11:20 am75 °FPassing clouds.10 mph50%30.12 "HgN/A
10:50 am75 °FPassing clouds.14 mph47%30.12 "HgN/A
10:20 am77 °FSunny.15 mph44%30.12 "Hg10 mi
9:50 am75 °FSunny.13 mph47%30.12 "Hg10 mi
9:20 am73 °FSunny.9 mph53%30.12 "Hg10 mi
8:50 am72 °FSunny.7 mph57%30.12 "Hg10 mi
8:20 am70 °FPassing clouds.5 mph60%30.15 "HgN/A
7:50 am68 °FPassing clouds.5 mph64%30.15 "HgN/A
7:20 am66 °FPassing clouds.6 mph68%30.15 "HgN/A
6:50 am64 °FSunny.5 mph73%30.15 "Hg10 mi
6:20 am63 °FSunny.3 mph73%30.15 "Hg10 mi
5:50 am61 °FClear.5 mph77%30.15 "HgN/A
5:20 am59 °FClear.3 mph82%30.18 "HgN/A
4:50 am57 °FClear.3 mph82%30.18 "HgN/A
4:20 am57 °FClear.3 mph82%30.18 "HgN/A
3:20 am59 °FClear.6 mph77%30.18 "HgN/A
2:50 am59 °FClear.6 mph77%30.18 "HgN/A
2:20 am61 °FClear.6 mph72%30.18 "HgN/A
1:50 am59 °FPassing clouds.7 mph77%30.18 "HgN/A
1:20 am61 °FClear.6 mph72%30.21 "HgN/A
12:50 am61 °FPassing clouds.5 mph72%30.21 "HgN/A
12:20 am63 °FPassing clouds.7 mph68%30.21 "HgN/A
11:50 pm
Sun, May 26
63 °FOvercast.6 mph68%30.21 "HgN/A
11:20 pm63 °FPassing clouds.7 mph68%30.21 "HgN/A
Weather by CustomWeather, © 2024

See weather overview